createdAt,value
2019-05-16T00:02:18.758Z,79.70
2019-05-16T00:04:45.376Z,79.30
2019-05-16T00:07:11.888Z,79.50
2019-05-16T00:09:39.477Z,79.70
2019-05-16T00:12:08.556Z,79.80
2019-05-16T00:14:34.654Z,79.60
2019-05-16T00:17:14.751Z,79.50
2019-05-16T00:19:41.279Z,79.10
2019-05-16T00:22:08.705Z,79.00
2019-05-16T00:24:35.431Z,78.80
2019-05-16T00:27:02.105Z,78.90
2019-05-16T00:29:28.796Z,78.90
2019-05-16T00:32:08.678Z,78.60
2019-05-16T00:34:35.273Z,78.50
2019-05-16T00:37:01.857Z,78.30
2019-05-16T00:39:28.243Z,78.30
2019-05-16T00:41:54.853Z,78.20
2019-05-16T00:44:21.452Z,78.40
2019-05-16T00:46:48.591Z,78.50
2019-05-16T00:49:15.560Z,78.60
2019-05-16T00:52:01.829Z,79.00
2019-05-16T00:54:28.320Z,78.80
2019-05-16T00:56:57.435Z,78.60
2019-05-16T00:59:23.726Z,78.70
2019-05-16T01:01:50.481Z,78.90
2019-05-16T01:04:18.266Z,78.70
2019-05-16T01:06:45.085Z,78.70
2019-05-16T01:09:11.651Z,78.70
2019-05-16T01:11:38.373Z,78.40
2019-05-16T01:14:05.262Z,78.70
2019-05-16T01:16:31.713Z,78.70
2019-05-16T01:18:58.975Z,78.60
2019-05-16T01:21:25.898Z,78.60
2019-05-16T01:23:52.318Z,78.60
2019-05-16T01:26:18.780Z,78.30
2019-05-16T01:28:45.167Z,78.20
2019-05-16T01:31:11.584Z,78.10
2019-05-16T01:33:38.567Z,78.10
2019-05-16T01:36:05.451Z,78.20
2019-05-16T01:38:31.877Z,78.10
2019-05-16T01:40:58.572Z,78.10
2019-05-16T01:43:24.969Z,77.90
2019-05-16T01:45:51.438Z,77.90
2019-05-16T01:48:19.210Z,78.10
2019-05-16T01:50:47.935Z,78.00
2019-05-16T01:53:14.237Z,77.80
2019-05-16T01:55:40.722Z,78.00
2019-05-16T01:58:08.039Z,78.20
2019-05-16T02:00:38.405Z,78.10
2019-05-16T02:03:23.029Z,78.00
2019-05-16T02:06:02.416Z,77.50
2019-05-16T02:08:29.016Z,77.60
2019-05-16T02:10:55.503Z,77.80
2019-05-16T02:13:23.371Z,77.60
2019-05-16T02:16:09.844Z,78.00
2019-05-16T02:18:38.173Z,77.90
2019-05-16T02:21:04.890Z,77.80
2019-05-16T02:23:31.334Z,77.80
2019-05-16T02:25:58.134Z,77.70
2019-05-16T02:28:31.009Z,77.70
2019-05-16T02:30:53.265Z,76.70
2019-05-16T02:33:21.360Z,77.60
2019-05-16T02:35:54.703Z,77.40
2019-05-16T02:38:16.501Z,77.40
2019-05-16T02:41:03.515Z,77.30
2019-05-16T02:43:31.271Z,77.30
2019-05-16T02:46:01.161Z,77.30
2019-05-16T02:48:26.645Z,77.30
2019-05-16T02:51:06.837Z,77.10
2019-05-16T02:53:33.260Z,77.20
2019-05-16T02:56:01.380Z,77.30
2019-05-16T02:58:30.722Z,77.20
2019-05-16T03:00:56.371Z,77.30
2019-05-16T03:03:24.149Z,77.30
2019-05-16T03:05:52.935Z,77.50
2019-05-16T03:08:32.826Z,77.70
2019-05-16T03:11:01.094Z,77.70
2019-05-16T03:13:31.217Z,77.50
2019-05-16T03:16:21.984Z,78.20
2019-05-16T03:18:51.410Z,77.40
2019-05-16T03:21:21.617Z,77.60
2019-05-16T03:23:50.603Z,77.40
2019-05-16T03:26:15.818Z,77.80
2019-05-16T03:28:42.369Z,77.80
2019-05-16T03:31:14.159Z,77.80
2019-05-16T03:33:48.402Z,77.80
2019-05-16T03:36:05.733Z,77.90
2019-05-16T03:38:32.534Z,77.90
2019-05-16T03:41:01.043Z,77.80
2019-05-16T03:43:30.722Z,77.60
2019-05-16T03:45:55.708Z,77.50
2019-05-16T03:48:22.314Z,77.70
2019-05-16T03:50:50.809Z,77.80
2019-05-16T03:53:17.109Z,77.90
2019-05-16T03:55:43.699Z,77.80
2019-05-16T03:58:11.619Z,77.70
2019-05-16T04:00:54.170Z,77.70
2019-05-16T04:03:22.003Z,77.80
2019-05-16T04:05:52.568Z,77.60
2019-05-16T04:08:20.792Z,77.80
2019-05-16T04:10:47.644Z,77.70
2019-05-16T04:13:27.577Z,77.90
2019-05-16T04:15:54.112Z,77.50
2019-05-16T04:18:21.884Z,77.50
2019-05-16T04:20:52.459Z,78.00
2019-05-16T04:23:20.381Z,77.70
2019-05-16T04:25:45.482Z,78.10
2019-05-16T04:28:12.015Z,78.00
2019-05-16T04:30:41.330Z,78.00
2019-05-16T04:33:06.623Z,77.90
2019-05-16T04:35:32.918Z,77.60
2019-05-16T04:38:01.878Z,77.80
2019-05-16T04:40:27.555Z,77.90
2019-05-16T04:42:54.073Z,78.00
2019-05-16T04:45:21.265Z,78.30
2019-05-16T04:47:50.962Z,78.40
2019-05-16T04:50:16.904Z,78.10
2019-05-16T04:52:43.599Z,77.80
2019-05-16T04:55:12.011Z,78.20
2019-05-16T04:57:42.243Z,78.30
2019-05-16T05:00:11.199Z,78.00
2019-05-16T05:02:37.342Z,78.20
2019-05-16T05:05:04.313Z,78.30
2019-05-16T05:07:31.400Z,78.60
2019-05-16T05:10:00.558Z,78.80
2019-05-16T05:12:26.720Z,79.40
2019-05-16T05:14:53.299Z,79.80
2019-05-16T05:17:21.101Z,80.40
2019-05-16T05:19:50.470Z,80.40
2019-05-16T05:22:16.422Z,80.20
2019-05-16T05:24:43.083Z,80.10
2019-05-16T05:27:10.525Z,80.60
2019-05-16T05:29:39.648Z,80.60
2019-05-16T05:32:05.637Z,80.20
2019-05-16T05:34:52.264Z,79.80
2019-05-16T05:37:20.409Z,79.40
2019-05-16T05:40:06.917Z,78.90
2019-05-16T05:42:33.640Z,78.80
2019-05-16T05:45:11.161Z,78.90
2019-05-16T05:47:40.183Z,79.00
2019-05-16T05:50:10.879Z,79.60
2019-05-16T05:52:51.270Z,79.60
2019-05-16T05:55:31.486Z,80.00
2019-05-16T05:58:00.897Z,80.10
2019-05-16T06:00:26.630Z,78.70
2019-05-16T06:02:53.173Z,78.10
2019-05-16T06:05:20.242Z,78.50
2019-05-16T06:07:47.124Z,78.80
2019-05-16T06:10:13.837Z,80.40
2019-05-16T06:12:40.887Z,79.50
2019-05-16T06:15:12.377Z,79.60
2019-05-16T06:17:40.004Z,79.20
2019-05-16T06:20:06.375Z,79.00
2019-05-16T06:22:32.771Z,79.10
2019-05-16T06:25:01.136Z,78.80
2019-05-16T06:27:30.038Z,78.60
2019-05-16T06:29:57.383Z,78.40
2019-05-16T06:32:24.171Z,78.00
2019-05-16T06:34:50.883Z,76.90
2019-05-16T06:37:17.563Z,75.90
2019-05-16T06:39:45.499Z,75.10
2019-05-16T06:42:12.322Z,74.20
2019-05-16T06:44:40.169Z,74.30
2019-05-16T06:47:17.065Z,74.50
2019-05-16T06:49:35.493Z,75.10
2019-05-16T06:52:15.012Z,74.90
2019-05-16T06:54:54.223Z,74.90
2019-05-16T06:57:20.799Z,74.00
2019-05-16T06:59:47.196Z,74.20
2019-05-16T07:02:26.625Z,75.00
2019-05-16T07:04:42.314Z,75.90
2019-05-16T07:07:22.078Z,76.70
2019-05-16T07:09:59.995Z,76.50
2019-05-16T07:12:17.067Z,76.40
2019-05-16T07:14:43.602Z,76.30
2019-05-16T07:17:10.081Z,76.20
2019-05-16T07:19:36.717Z,72.50
2019-05-16T07:22:03.311Z,72.80
2019-05-16T07:24:30.578Z,72.80
2019-05-16T07:26:57.476Z,72.80
2019-05-16T07:29:23.915Z,72.30
2019-05-16T07:31:52.238Z,71.30
2019-05-16T07:34:20.665Z,69.20
2019-05-16T07:36:50.032Z,68.70
2019-05-16T07:39:15.698Z,67.90
2019-05-16T07:41:42.154Z,68.60
2019-05-16T07:44:10.848Z,68.60
2019-05-16T07:46:36.972Z,68.70
2019-05-16T07:49:03.503Z,67.30
2019-05-16T07:51:31.049Z,67.50
2019-05-16T07:53:59.797Z,68.50
2019-05-16T07:56:26.433Z,68.00
2019-05-16T07:59:12.882Z,66.60
2019-05-16T08:01:40.191Z,66.50
2019-05-16T08:04:10.390Z,66.90
2019-05-16T08:06:36.171Z,66.60
2019-05-16T08:09:07.683Z,66.80
2019-05-16T08:11:33.245Z,66.80
2019-05-16T08:14:01.147Z,66.70
2019-05-16T08:16:30.428Z,68.60
2019-05-16T08:18:56.050Z,66.60
2019-05-16T08:21:22.587Z,66.90
2019-05-16T08:23:50.436Z,66.90
2019-05-16T08:26:17.400Z,66.70
2019-05-16T08:28:43.880Z,66.60
2019-05-16T08:31:11.797Z,63.90
2019-05-16T08:33:41.484Z,63.50
2019-05-16T08:36:08.341Z,62.30
2019-05-16T08:38:35.513Z,61.90
2019-05-16T08:41:11.764Z,60.30
2019-05-16T08:43:31.978Z,60.20
2019-05-16T08:46:01.071Z,60.90
2019-05-16T08:48:27.137Z,62.50
2019-05-16T08:50:55.181Z,59.30
2019-05-16T08:53:22.093Z,59.00
2019-05-16T08:55:50.620Z,58.40
2019-05-16T08:58:17.190Z,58.50
2019-05-16T09:00:44.064Z,58.80
2019-05-16T09:03:12.310Z,60.20
2019-05-16T09:05:45.363Z,59.00
2019-05-16T09:08:12.045Z,59.20
2019-05-16T09:11:01.762Z,59.40
2019-05-16T09:13:07.279Z,59.90
2019-05-16T09:15:48.280Z,59.30
2019-05-16T09:18:17.575Z,59.10
2019-05-16T09:20:57.797Z,56.50
2019-05-16T09:23:26.790Z,55.70
2019-05-16T09:25:53.066Z,56.90
2019-05-16T09:28:19.626Z,56.10
2019-05-16T09:30:47.104Z,57.50
2019-05-16T09:33:14.072Z,57.40
2019-05-16T09:35:40.784Z,57.90
2019-05-16T09:38:07.348Z,57.70
2019-05-16T09:40:34.057Z,57.50
2019-05-16T09:43:00.555Z,58.50
2019-05-16T09:45:27.414Z,57.70
2019-05-16T09:47:57.103Z,59.50
2019-05-16T09:50:23.156Z,58.10
2019-05-16T09:52:49.585Z,58.40
2019-05-16T09:55:17.540Z,58.30
2019-05-16T09:57:46.876Z,58.40
2019-05-16T10:00:17.923Z,58.40
2019-05-16T10:02:47.327Z,58.00
2019-05-16T10:05:13.977Z,59.30
2019-05-16T10:07:40.755Z,57.60
2019-05-16T10:10:08.559Z,57.80
2019-05-16T10:12:36.946Z,56.90
2019-05-16T10:15:23.300Z,56.70
2019-05-16T10:17:49.850Z,56.90
2019-05-16T10:20:16.938Z,58.10
2019-05-16T10:22:43.735Z,58.50
2019-05-16T10:25:12.728Z,57.10
2019-05-16T10:27:39.354Z,57.50
2019-05-16T10:30:08.443Z,57.80
2019-05-16T10:32:36.494Z,59.80
2019-05-16T10:35:28.973Z,57.20
2019-05-16T10:37:52.636Z,59.10
2019-05-16T10:40:21.315Z,57.80
2019-05-16T10:43:00.670Z,57.90
2019-05-16T10:45:27.407Z,58.70
2019-05-16T10:47:55.142Z,59.10
2019-05-16T10:50:21.798Z,58.80
2019-05-16T10:53:04.104Z,59.80
2019-05-16T10:55:17.735Z,57.90
2019-05-16T10:57:47.073Z,58.50
2019-05-16T11:00:34.988Z,57.80
2019-05-16T11:02:43.922Z,58.00
2019-05-16T11:05:25.768Z,57.90
2019-05-16T11:07:39.860Z,60.50
2019-05-16T11:10:07.552Z,59.30
2019-05-16T11:12:47.785Z,59.20
2019-05-16T11:15:07.825Z,60.00
2019-05-16T11:17:33.915Z,59.40
2019-05-16T11:20:00.579Z,58.60
2019-05-16T11:22:30.012Z,57.20
2019-05-16T11:24:56.549Z,58.80
2019-05-16T11:27:23.311Z,57.90
2019-05-16T11:29:49.982Z,58.20
2019-05-16T11:32:16.556Z,57.20
2019-05-16T11:34:43.053Z,57.90
2019-05-16T11:37:09.684Z,58.30
2019-05-16T11:39:37.064Z,57.90
2019-05-16T11:42:04.167Z,58.10
2019-05-16T11:44:30.873Z,58.30
2019-05-16T11:46:57.681Z,56.20
2019-05-16T11:49:24.507Z,57.10
2019-05-16T11:52:10.841Z,57.20
2019-05-16T11:54:37.553Z,57.50
2019-05-16T11:57:06.660Z,56.70
2019-05-16T11:59:32.570Z,57.90
2019-05-16T12:01:58.931Z,57.90
2019-05-16T12:04:27.876Z,55.20
2019-05-16T12:06:54.002Z,56.00
2019-05-16T12:09:20.716Z,56.60
2019-05-16T12:12:08.697Z,56.00
2019-05-16T12:14:36.698Z,56.00
2019-05-16T12:17:03.460Z,56.90
2019-05-16T12:19:33.768Z,55.70
2019-05-16T12:21:58.505Z,56.20
2019-05-16T12:24:33.489Z,55.50
2019-05-16T12:26:53.326Z,54.90
2019-05-16T12:29:19.888Z,55.20
2019-05-16T12:31:55.282Z,55.00
2019-05-16T12:34:14.784Z,55.40
2019-05-16T12:36:41.307Z,54.60
2019-05-16T12:39:07.985Z,56.00
2019-05-16T12:41:40.966Z,55.10
2019-05-16T12:44:04.519Z,55.70
2019-05-16T12:46:31.003Z,55.90
2019-05-16T12:48:57.699Z,56.30
2019-05-16T12:51:26.358Z,55.40
2019-05-16T12:53:52.736Z,56.10
2019-05-16T12:56:20.301Z,57.10
2019-05-16T12:58:47.265Z,55.50
2019-05-16T13:01:16.622Z,56.70
2019-05-16T13:03:42.575Z,55.00
2019-05-16T13:06:08.979Z,55.10
2019-05-16T13:08:37.477Z,55.20
2019-05-16T13:11:03.846Z,52.30
2019-05-16T13:13:31.268Z,53.00
2019-05-16T13:15:57.780Z,53.30
2019-05-16T13:18:24.422Z,53.60
2019-05-16T13:20:50.974Z,52.70
2019-05-16T13:23:18.294Z,53.20
2019-05-16T13:25:47.837Z,51.40
2019-05-16T13:28:13.560Z,52.90
2019-05-16T13:30:40.217Z,54.40
2019-05-16T13:33:27.113Z,54.70
2019-05-16T13:35:53.982Z,53.70
2019-05-16T13:38:20.581Z,52.00
2019-05-16T13:40:47.127Z,52.60
2019-05-16T13:43:13.643Z,53.30
2019-05-16T13:45:40.333Z,54.20
2019-05-16T13:48:08.059Z,53.20
2019-05-16T13:50:37.332Z,51.80
2019-05-16T13:53:03.245Z,53.00
2019-05-16T13:55:29.686Z,53.10
2019-05-16T13:57:56.273Z,50.50
2019-05-16T14:00:22.905Z,50.30
2019-05-16T14:02:49.681Z,50.00
2019-05-16T14:05:17.989Z,50.00
2019-05-16T14:07:47.490Z,50.50
2019-05-16T14:10:13.350Z,50.30
2019-05-16T14:12:53.315Z,49.40
2019-05-16T14:15:19.939Z,50.70
2019-05-16T14:17:48.735Z,51.00
2019-05-16T14:20:17.973Z,51.20
2019-05-16T14:22:43.433Z,50.40
2019-05-16T14:25:10.077Z,49.70
2019-05-16T14:27:38.277Z,50.00
2019-05-16T14:30:09.186Z,50.40
2019-05-16T14:32:40.863Z,49.70
2019-05-16T14:35:08.471Z,49.00
2019-05-16T14:37:34.149Z,49.20
2019-05-16T14:40:01.804Z,49.60
2019-05-16T14:42:29.156Z,50.00
2019-05-16T14:45:06.598Z,49.40
2019-05-16T14:47:26.973Z,50.80
2019-05-16T14:49:52.396Z,51.70
2019-05-16T14:52:18.828Z,52.60
2019-05-16T14:54:46.938Z,53.70
2019-05-16T14:57:13.400Z,53.30
2019-05-16T14:59:39.940Z,53.20
2019-05-16T15:02:07.168Z,53.80
2019-05-16T15:04:34.290Z,53.90
2019-05-16T15:07:00.979Z,53.90
2019-05-16T15:09:27.420Z,53.50
2019-05-16T15:11:54.000Z,53.90
2019-05-16T15:14:20.400Z,54.70
2019-05-16T15:16:48.618Z,54.60
2019-05-16T15:19:17.481Z,53.30
2019-05-16T15:21:43.684Z,53.10
2019-05-16T15:24:10.100Z,53.80
2019-05-16T15:26:37.676Z,54.60
2019-05-16T15:29:07.880Z,55.40
2019-05-16T15:31:32.860Z,54.70
2019-05-16T15:33:59.243Z,54.20
2019-05-16T15:36:27.059Z,53.80
2019-05-16T15:38:56.721Z,54.30
2019-05-16T15:41:22.123Z,54.20
2019-05-16T15:43:48.626Z,54.20
2019-05-16T15:46:17.354Z,54.50
2019-05-16T15:48:44.198Z,53.80
2019-05-16T15:51:11.214Z,54.20
2019-05-16T15:53:38.345Z,54.60
2019-05-16T15:56:07.010Z,55.00
2019-05-16T15:58:33.680Z,54.50
2019-05-16T16:01:00.234Z,54.90
2019-05-16T16:03:27.416Z,54.60
2019-05-16T16:05:54.213Z,55.20
2019-05-16T16:08:20.886Z,55.90
2019-05-16T16:10:48.053Z,55.60
2019-05-16T16:13:19.396Z,56.50
2019-05-16T16:15:51.453Z,56.40
2019-05-16T16:18:12.378Z,56.50
2019-05-16T16:20:38.998Z,56.50
2019-05-16T16:23:06.777Z,57.00
2019-05-16T16:25:33.857Z,56.00
2019-05-16T16:28:00.393Z,56.30
2019-05-16T16:30:27.814Z,56.40
2019-05-16T16:32:54.462Z,56.40
2019-05-16T16:35:21.267Z,56.70
2019-05-16T16:37:47.802Z,57.00
2019-05-16T16:40:17.386Z,57.00
2019-05-16T16:42:43.285Z,56.40
2019-05-16T16:45:10.054Z,56.50
2019-05-16T16:47:37.815Z,56.30
2019-05-16T16:50:07.692Z,56.00
2019-05-16T16:52:37.425Z,55.80
2019-05-16T16:55:07.579Z,56.10
2019-05-16T16:57:37.741Z,55.90
2019-05-16T17:00:07.716Z,56.40
2019-05-16T17:02:37.124Z,56.70
2019-05-16T17:05:10.222Z,57.30
2019-05-16T17:07:32.907Z,57.90
2019-05-16T17:09:59.462Z,58.60
2019-05-16T17:12:26.178Z,58.10
2019-05-16T17:14:52.772Z,58.00
2019-05-16T17:17:19.274Z,58.10
2019-05-16T17:19:47.387Z,59.00
2019-05-16T17:22:18.329Z,59.00
2019-05-16T17:24:43.794Z,59.00
2019-05-16T17:27:10.196Z,60.20
2019-05-16T17:29:37.780Z,60.90
2019-05-16T17:32:09.493Z,61.90
2019-05-16T17:34:37.150Z,61.50
2019-05-16T17:37:06.474Z,61.00
2019-05-16T17:39:32.224Z,60.90
2019-05-16T17:41:58.712Z,60.80
2019-05-16T17:44:27.092Z,61.70
2019-05-16T17:46:53.693Z,60.90
2019-05-16T17:49:20.810Z,61.60
2019-05-16T17:51:47.535Z,61.10
2019-05-16T17:54:14.129Z,61.10
2019-05-16T17:56:40.668Z,62.00
2019-05-16T17:59:07.437Z,62.30
2019-05-16T18:01:35.533Z,62.60
2019-05-16T18:04:01.980Z,63.00
2019-05-16T18:06:28.893Z,63.30
2019-05-16T18:08:57.142Z,63.30
2019-05-16T18:11:24.008Z,63.60
2019-05-16T18:13:50.565Z,63.90
2019-05-16T18:16:17.271Z,64.30
2019-05-16T18:18:43.817Z,65.50
2019-05-16T18:21:10.523Z,64.40
2019-05-16T18:23:37.364Z,64.50
2019-05-16T18:26:07.418Z,65.10
2019-05-16T18:28:33.724Z,64.90
2019-05-16T18:31:00.119Z,64.30
2019-05-16T18:33:27.653Z,64.10
2019-05-16T18:35:54.434Z,63.90
2019-05-16T18:38:21.189Z,64.20
2019-05-16T18:40:47.732Z,64.40
2019-05-16T18:43:16.483Z,64.30
2019-05-16T18:45:43.118Z,64.60
2019-05-16T18:48:09.758Z,64.30
2019-05-16T18:50:37.525Z,64.90
2019-05-16T18:53:06.895Z,65.20
2019-05-16T18:55:33.655Z,65.40
2019-05-16T18:58:00.183Z,65.30
2019-05-16T19:00:26.859Z,66.50
2019-05-16T19:02:53.410Z,66.80
2019-05-16T19:05:20.003Z,67.50
2019-05-16T19:07:47.602Z,68.00
2019-05-16T19:10:14.786Z,68.30
2019-05-16T19:12:41.292Z,69.30
2019-05-16T19:15:09.427Z,68.90
2019-05-16T19:17:36.556Z,68.80
2019-05-16T19:20:06.655Z,68.60
2019-05-16T19:22:33.434Z,68.80
2019-05-16T19:24:59.950Z,68.00
2019-05-16T19:27:26.688Z,67.90
2019-05-16T19:29:53.032Z,67.70
2019-05-16T19:32:19.715Z,67.60
2019-05-16T19:35:07.110Z,68.10
2019-05-16T19:37:37.906Z,68.30
2019-05-16T19:40:06.299Z,68.00
2019-05-16T19:42:32.642Z,68.50
2019-05-16T19:44:59.101Z,68.80
2019-05-16T19:47:34.964Z,68.70
2019-05-16T19:49:53.913Z,68.50
2019-05-16T19:52:21.313Z,68.60
2019-05-16T19:54:47.822Z,68.20
2019-05-16T19:57:14.395Z,66.70
2019-05-16T19:59:40.814Z,66.30
2019-05-16T20:02:21.149Z,66.50
2019-05-16T20:04:47.868Z,66.30
2019-05-16T20:07:16.648Z,66.20
2019-05-16T20:09:42.721Z,66.70
2019-05-16T20:12:09.242Z,66.60
2019-05-16T20:14:36.673Z,66.90
2019-05-16T20:17:03.493Z,67.30
2019-05-16T20:19:30.001Z,67.20
2019-05-16T20:21:58.056Z,67.20
2019-05-16T20:24:27.155Z,67.70
2019-05-16T20:26:56.943Z,67.40
2019-05-16T20:29:23.057Z,67.40
2019-05-16T20:31:49.747Z,66.90
2019-05-16T20:34:17.570Z,66.80
2019-05-16T20:36:46.478Z,66.20
2019-05-16T20:39:12.712Z,66.10
2019-05-16T20:41:39.349Z,65.80
2019-05-16T20:44:06.586Z,66.60
2019-05-16T20:46:33.515Z,66.80
2019-05-16T20:49:00.979Z,67.20
2019-05-16T20:51:27.615Z,68.20
2019-05-16T20:53:57.591Z,69.30
2019-05-16T20:56:23.451Z,70.30
2019-05-16T20:58:49.898Z,70.90
2019-05-16T21:01:17.362Z,71.00
2019-05-16T21:03:46.650Z,70.70
2019-05-16T21:06:12.680Z,70.20
2019-05-16T21:08:39.351Z,70.00
2019-05-16T21:11:06.528Z,70.10
2019-05-16T21:13:33.410Z,70.30
2019-05-16T21:15:59.933Z,70.40
2019-05-16T21:18:26.443Z,70.50
2019-05-16T21:20:53.084Z,70.90
2019-05-16T21:23:19.681Z,71.40
2019-05-16T21:25:47.252Z,71.70
2019-05-16T21:28:14.178Z,72.30
2019-05-16T21:30:40.506Z,72.70
2019-05-16T21:33:07.191Z,72.40
2019-05-16T21:35:36.307Z,73.20
2019-05-16T21:38:02.248Z,73.10
2019-05-16T21:40:31.286Z,73.30
2019-05-16T21:42:58.826Z,73.40
2019-05-16T21:45:28.362Z,73.10
2019-05-16T21:47:53.339Z,73.30
2019-05-16T21:50:19.875Z,73.40
2019-05-16T21:52:46.992Z,73.80
2019-05-16T21:55:14.987Z,73.70
2019-05-16T21:57:41.425Z,73.60
2019-05-16T22:00:18.398Z,73.40
2019-05-16T22:02:47.011Z,73.70
2019-05-16T22:05:14.097Z,73.40
2019-05-16T22:07:42.705Z,73.50
2019-05-16T22:10:09.613Z,73.40
2019-05-16T22:12:38.534Z,73.30
2019-05-16T22:15:06.680Z,73.30
2019-05-16T22:17:36.636Z,73.30
2019-05-16T22:20:07.635Z,73.30
2019-05-16T22:22:37.923Z,73.10
2019-05-16T22:25:04.590Z,73.10
2019-05-16T22:27:31.090Z,73.20
2019-05-16T22:29:57.763Z,73.40
2019-05-16T22:32:24.376Z,73.70
2019-05-16T22:34:50.799Z,73.60
2019-05-16T22:37:17.486Z,73.70
2019-05-16T22:39:44.125Z,73.70
2019-05-16T22:42:10.760Z,73.70
2019-05-16T22:44:37.323Z,73.50
2019-05-16T22:47:06.549Z,73.60
2019-05-16T22:49:32.463Z,73.50
2019-05-16T22:51:59.664Z,73.70
2019-05-16T22:54:26.391Z,73.80
2019-05-16T22:56:53.528Z,74.50
2019-05-16T22:59:20.406Z,73.40
2019-05-16T23:01:48.077Z,73.40
2019-05-16T23:04:16.624Z,73.20
2019-05-16T23:06:43.164Z,73.30
2019-05-16T23:09:09.817Z,73.00
2019-05-16T23:11:36.400Z,72.40
2019-05-16T23:14:03.250Z,72.20
2019-05-16T23:16:29.896Z,72.10
2019-05-16T23:18:57.217Z,72.30
2019-05-16T23:21:27.679Z,72.70
2019-05-16T23:23:56.998Z,72.80
2019-05-16T23:26:23.999Z,72.90
2019-05-16T23:28:51.364Z,72.90
2019-05-16T23:31:19.019Z,73.00
2019-05-16T23:33:47.004Z,73.30
2019-05-16T23:36:17.255Z,73.20
2019-05-16T23:38:44.030Z,73.20
2019-05-16T23:41:10.854Z,73.50
2019-05-16T23:43:37.551Z,73.70
2019-05-16T23:46:04.174Z,73.90
2019-05-16T23:48:30.615Z,74.00
2019-05-16T23:50:57.354Z,74.20
2019-05-16T23:53:25.148Z,74.20
2019-05-16T23:55:51.758Z,73.70
2019-05-16T23:58:18.334Z,73.60
